sensor_id;sensor_type;location;lat;lon;timestamp;P1;durP1;ratioP1;P2;durP2;ratioP2
55641;SDS011;41509;53.108;6.100;2023-05-10T00:01:23;5.60;;;3.43;;
55641;SDS011;41509;53.108;6.100;2023-05-10T00:03:49;5.22;;;3.60;;
55641;SDS011;41509;53.108;6.100;2023-05-10T00:06:15;6.70;;;4.70;;
55641;SDS011;41509;53.108;6.100;2023-05-10T00:08:40;8.45;;;5.38;;
55641;SDS011;41509;53.108;6.100;2023-05-10T00:11:10;7.47;;;4.97;;
55641;SDS011;41509;53.108;6.100;2023-05-10T00:13:38;7.15;;;4.68;;
55641;SDS011;41509;53.108;6.100;2023-05-10T00:16:03;7.70;;;4.63;;
55641;SDS011;41509;53.108;6.100;2023-05-10T00:18:29;6.97;;;4.70;;
55641;SDS011;41509;53.108;6.100;2023-05-10T00:20:57;7.18;;;4.55;;
55641;SDS011;41509;53.108;6.100;2023-05-10T00:23:23;5.75;;;3.75;;
55641;SDS011;41509;53.108;6.100;2023-05-10T00:25:51;5.95;;;3.47;;
55641;SDS011;41509;53.108;6.100;2023-05-10T00:28:17;6.07;;;3.67;;
55641;SDS011;41509;53.108;6.100;2023-05-10T00:30:43;6.37;;;3.73;;
55641;SDS011;41509;53.108;6.100;2023-05-10T00:33:10;6.80;;;4.22;;
55641;SDS011;41509;53.108;6.100;2023-05-10T00:35:36;5.43;;;3.65;;
55641;SDS011;41509;53.108;6.100;2023-05-10T00:38:03;5.38;;;3.35;;
55641;SDS011;41509;53.108;6.100;2023-05-10T00:40:28;5.63;;;3.13;;
55641;SDS011;41509;53.108;6.100;2023-05-10T00:42:55;4.97;;;3.15;;
55641;SDS011;41509;53.108;6.100;2023-05-10T00:47:47;4.35;;;2.92;;
55641;SDS011;41509;53.108;6.100;2023-05-10T00:50:20;3.33;;;2.35;;
55641;SDS011;41509;53.108;6.100;2023-05-10T00:52:46;3.78;;;2.53;;
55641;SDS011;41509;53.108;6.100;2023-05-10T00:55:12;5.13;;;3.38;;
55641;SDS011;41509;53.108;6.100;2023-05-10T00:57:38;4.80;;;3.10;;
55641;SDS011;41509;53.108;6.100;2023-05-10T01:00:04;5.55;;;3.30;;
55641;SDS011;41509;53.108;6.100;2023-05-10T01:02:30;5.30;;;3.40;;
55641;SDS011;41509;53.108;6.100;2023-05-10T01:04:58;6.95;;;4.35;;
55641;SDS011;41509;53.108;6.100;2023-05-10T01:07:26;7.18;;;3.63;;
55641;SDS011;41509;53.108;6.100;2023-05-10T01:09:55;6.65;;;3.45;;
55641;SDS011;41509;53.108;6.100;2023-05-10T01:12:21;6.32;;;3.97;;
55641;SDS011;41509;53.108;6.100;2023-05-10T01:14:47;7.03;;;4.57;;
55641;SDS011;41509;53.108;6.100;2023-05-10T01:17:16;6.45;;;3.80;;
55641;SDS011;41509;53.108;6.100;2023-05-10T01:19:42;7.90;;;4.45;;
55641;SDS011;41509;53.108;6.100;2023-05-10T01:33:46;9.10;;;4.80;;
55641;SDS011;41509;53.108;6.100;2023-05-10T01:36:45;10.93;;;5.32;;
55641;SDS011;41509;53.108;6.100;2023-05-10T01:47:40;15.13;;;7.78;;
55641;SDS011;41509;53.108;6.100;2023-05-10T01:50:10;16.35;;;7.78;;
55641;SDS011;41509;53.108;6.100;2023-05-10T01:52:44;20.08;;;8.20;;
55641;SDS011;41509;53.108;6.100;2023-05-10T01:55:23;19.85;;;9.55;;
55641;SDS011;41509;53.108;6.100;2023-05-10T01:57:52;15.40;;;8.30;;
55641;SDS011;41509;53.108;6.100;2023-05-10T02:00:31;16.70;;;8.70;;
55641;SDS011;41509;53.108;6.100;2023-05-10T02:03:00;17.73;;;8.90;;
55641;SDS011;41509;53.108;6.100;2023-05-10T02:05:30;17.63;;;9.48;;
55641;SDS011;41509;53.108;6.100;2023-05-10T02:07:58;16.08;;;9.02;;
55641;SDS011;41509;53.108;6.100;2023-05-10T02:10:27;16.13;;;9.23;;
55641;SDS011;41509;53.108;6.100;2023-05-10T02:12:54;21.63;;;9.73;;
55641;SDS011;41509;53.108;6.100;2023-05-10T02:15:22;19.15;;;9.82;;
55641;SDS011;41509;53.108;6.100;2023-05-10T02:17:49;21.95;;;10.38;;
55641;SDS011;41509;53.108;6.100;2023-05-10T02:20:17;17.08;;;8.88;;
55641;SDS011;41509;53.108;6.100;2023-05-10T02:22:45;18.77;;;9.63;;
55641;SDS011;41509;53.108;6.100;2023-05-10T02:25:14;20.10;;;9.10;;
55641;SDS011;41509;53.108;6.100;2023-05-10T02:27:41;17.63;;;9.30;;
55641;SDS011;41509;53.108;6.100;2023-05-10T02:30:09;21.25;;;10.05;;
55641;SDS011;41509;53.108;6.100;2023-05-10T02:32:38;22.38;;;9.75;;
55641;SDS011;41509;53.108;6.100;2023-05-10T02:35:04;20.45;;;9.07;;
55641;SDS011;41509;53.108;6.100;2023-05-10T02:37:31;21.90;;;10.27;;
55641;SDS011;41509;53.108;6.100;2023-05-10T02:39:59;19.17;;;9.38;;
55641;SDS011;41509;53.108;6.100;2023-05-10T02:42:28;21.80;;;9.32;;
55641;SDS011;41509;53.108;6.100;2023-05-10T02:44:59;18.55;;;9.23;;
55641;SDS011;41509;53.108;6.100;2023-05-10T02:47:27;18.92;;;8.93;;
55641;SDS011;41509;53.108;6.100;2023-05-10T02:49:53;18.98;;;9.70;;
55641;SDS011;41509;53.108;6.100;2023-05-10T02:52:21;20.88;;;9.48;;
55641;SDS011;41509;53.108;6.100;2023-05-10T02:54:54;20.00;;;9.50;;
55641;SDS011;41509;53.108;6.100;2023-05-10T02:57:27;17.02;;;9.00;;
55641;SDS011;41509;53.108;6.100;2023-05-10T02:59:56;17.65;;;8.82;;
55641;SDS011;41509;53.108;6.100;2023-05-10T03:02:22;16.55;;;8.40;;
55641;SDS011;41509;53.108;6.100;2023-05-10T03:04:48;15.63;;;7.38;;
55641;SDS011;41509;53.108;6.100;2023-05-10T03:07:14;13.43;;;7.30;;
55641;SDS011;41509;53.108;6.100;2023-05-10T03:09:40;13.02;;;7.18;;
55641;SDS011;41509;53.108;6.100;2023-05-10T03:12:11;14.38;;;8.35;;
55641;SDS011;41509;53.108;6.100;2023-05-10T03:17:41;16.60;;;7.90;;
55641;SDS011;41509;53.108;6.100;2023-05-10T03:20:22;12.13;;;7.22;;
55641;SDS011;41509;53.108;6.100;2023-05-10T03:22:52;14.23;;;7.55;;
55641;SDS011;41509;53.108;6.100;2023-05-10T03:25:23;11.75;;;6.43;;
55641;SDS011;41509;53.108;6.100;2023-05-10T03:27:50;12.55;;;7.07;;
55641;SDS011;41509;53.108;6.100;2023-05-10T03:30:17;14.15;;;7.57;;
55641;SDS011;41509;53.108;6.100;2023-05-10T03:32:46;13.45;;;7.50;;
55641;SDS011;41509;53.108;6.100;2023-05-10T03:35:12;11.48;;;6.32;;
55641;SDS011;41509;53.108;6.100;2023-05-10T03:37:39;13.60;;;6.25;;
55641;SDS011;41509;53.108;6.100;2023-05-10T03:40:05;9.38;;;5.88;;
55641;SDS011;41509;53.108;6.100;2023-05-10T03:44:57;10.75;;;6.07;;
55641;SDS011;41509;53.108;6.100;2023-05-10T03:47:22;16.57;;;7.27;;
55641;SDS011;41509;53.108;6.100;2023-05-10T03:49:48;11.97;;;7.00;;
55641;SDS011;41509;53.108;6.100;2023-05-10T03:52:14;9.80;;;6.10;;
55641;SDS011;41509;53.108;6.100;2023-05-10T03:54:39;8.65;;;5.82;;
55641;SDS011;41509;53.108;6.100;2023-05-10T03:57:05;7.90;;;5.33;;
55641;SDS011;41509;53.108;6.100;2023-05-10T03:59:31;8.35;;;5.47;;
55641;SDS011;41509;53.108;6.100;2023-05-10T04:01:56;9.35;;;5.65;;
55641;SDS011;41509;53.108;6.100;2023-05-10T04:04:22;11.43;;;6.60;;
55641;SDS011;41509;53.108;6.100;2023-05-10T04:06:48;7.93;;;5.35;;
55641;SDS011;41509;53.108;6.100;2023-05-10T04:09:14;7.45;;;5.00;;
55641;SDS011;41509;53.108;6.100;2023-05-10T04:11:40;5.72;;;3.88;;
55641;SDS011;41509;53.108;6.100;2023-05-10T04:14:05;3.03;;;2.30;;
55641;SDS011;41509;53.108;6.100;2023-05-10T04:16:31;2.47;;;1.70;;
55641;SDS011;41509;53.108;6.100;2023-05-10T04:18:56;1.60;;;1.20;;
55641;SDS011;41509;53.108;6.100;2023-05-10T04:21:22;2.70;;;1.60;;
55641;SDS011;41509;53.108;6.100;2023-05-10T04:23:48;2.08;;;1.30;;
55641;SDS011;41509;53.108;6.100;2023-05-10T04:26:16;2.92;;;0.90;;
55641;SDS011;41509;53.108;6.100;2023-05-10T04:28:45;0.90;;;0.60;;
55641;SDS011;41509;53.108;6.100;2023-05-10T04:31:11;0.80;;;0.57;;
55641;SDS011;41509;53.108;6.100;2023-05-10T04:33:37;1.00;;;0.77;;
55641;SDS011;41509;53.108;6.100;2023-05-10T04:36:03;0.70;;;0.50;;
55641;SDS011;41509;53.108;6.100;2023-05-10T04:38:28;0.82;;;0.50;;
55641;SDS011;41509;53.108;6.100;2023-05-10T04:41:02;1.27;;;0.40;;
55641;SDS011;41509;53.108;6.100;2023-05-10T04:43:29;0.50;;;0.43;;
55641;SDS011;41509;53.108;6.100;2023-05-10T04:45:58;1.15;;;0.35;;
55641;SDS011;41509;53.108;6.100;2023-05-10T04:48:24;0.80;;;0.25;;
55641;SDS011;41509;53.108;6.100;2023-05-10T04:50:50;0.30;;;0.20;;
55641;SDS011;41509;53.108;6.100;2023-05-10T04:53:15;0.13;;;0.13;;
55641;SDS011;41509;53.108;6.100;2023-05-10T04:55:41;0.40;;;0.30;;
55641;SDS011;41509;53.108;6.100;2023-05-10T04:58:07;0.43;;;0.22;;
55641;SDS011;41509;53.108;6.100;2023-05-10T05:00:37;0.38;;;0.20;;
55641;SDS011;41509;53.108;6.100;2023-05-10T05:03:03;0.43;;;0.28;;
55641;SDS011;41509;53.108;6.100;2023-05-10T05:05:32;0.60;;;0.30;;
55641;SDS011;41509;53.108;6.100;2023-05-10T05:07:58;0.43;;;0.22;;
55641;SDS011;41509;53.108;6.100;2023-05-10T05:10:23;0.67;;;0.40;;
55641;SDS011;41509;53.108;6.100;2023-05-10T05:12:49;0.68;;;0.40;;
55641;SDS011;41509;53.108;6.100;2023-05-10T05:15:15;2.30;;;0.38;;
55641;SDS011;41509;53.108;6.100;2023-05-10T05:17:43;1.13;;;0.60;;
55641;SDS011;41509;53.108;6.100;2023-05-10T05:20:12;0.47;;;0.30;;
55641;SDS011;41509;53.108;6.100;2023-05-10T05:22:38;7.47;;;1.17;;
55641;SDS011;41509;53.108;6.100;2023-05-10T05:25:04;0.73;;;0.40;;
55641;SDS011;41509;53.108;6.100;2023-05-10T05:27:33;0.35;;;0.35;;
55641;SDS011;41509;53.108;6.100;2023-05-10T05:29:58;0.43;;;0.30;;
55641;SDS011;41509;53.108;6.100;2023-05-10T05:32:24;2.40;;;0.50;;
55641;SDS011;41509;53.108;6.100;2023-05-10T05:34:50;0.47;;;0.30;;
55641;SDS011;41509;53.108;6.100;2023-05-10T05:37:17;1.52;;;0.35;;
55641;SDS011;41509;53.108;6.100;2023-05-10T05:39:46;0.80;;;0.38;;
55641;SDS011;41509;53.108;6.100;2023-05-10T05:42:12;0.22;;;0.20;;
55641;SDS011;41509;53.108;6.100;2023-05-10T05:44:38;0.68;;;0.40;;
55641;SDS011;41509;53.108;6.100;2023-05-10T05:47:04;0.43;;;0.20;;
55641;SDS011;41509;53.108;6.100;2023-05-10T05:49:30;0.20;;;0.10;;
55641;SDS011;41509;53.108;6.100;2023-05-10T05:51:59;0.80;;;0.40;;
55641;SDS011;41509;53.108;6.100;2023-05-10T05:54:29;0.60;;;0.38;;
55641;SDS011;41509;53.108;6.100;2023-05-10T05:56:59;0.80;;;0.47;;
55641;SDS011;41509;53.108;6.100;2023-05-10T05:59:25;0.85;;;0.50;;
55641;SDS011;41509;53.108;6.100;2023-05-10T06:01:52;0.68;;;0.47;;
55641;SDS011;41509;53.108;6.100;2023-05-10T06:04:17;1.10;;;0.60;;
55641;SDS011;41509;53.108;6.100;2023-05-10T06:06:43;2.17;;;1.00;;
55641;SDS011;41509;53.108;6.100;2023-05-10T06:09:09;1.27;;;0.80;;
55641;SDS011;41509;53.108;6.100;2023-05-10T06:11:36;1.70;;;0.98;;
55641;SDS011;41509;53.108;6.100;2023-05-10T06:14:02;1.48;;;0.90;;
55641;SDS011;41509;53.108;6.100;2023-05-10T06:16:29;1.85;;;0.98;;
55641;SDS011;41509;53.108;6.100;2023-05-10T06:18:55;2.03;;;0.75;;
55641;SDS011;41509;53.108;6.100;2023-05-10T06:21:21;1.60;;;0.90;;
55641;SDS011;41509;53.108;6.100;2023-05-10T06:23:47;1.10;;;0.65;;
55641;SDS011;41509;53.108;6.100;2023-05-10T06:26:13;1.67;;;1.20;;
55641;SDS011;41509;53.108;6.100;2023-05-10T06:28:39;1.67;;;0.90;;
55641;SDS011;41509;53.108;6.100;2023-05-10T06:33:32;1.55;;;0.80;;
55641;SDS011;41509;53.108;6.100;2023-05-10T06:35:58;1.90;;;1.10;;
55641;SDS011;41509;53.108;6.100;2023-05-10T06:38:24;1.27;;;0.70;;
55641;SDS011;41509;53.108;6.100;2023-05-10T06:40:50;2.08;;;0.80;;
55641;SDS011;41509;53.108;6.100;2023-05-10T06:43:16;1.88;;;1.02;;
55641;SDS011;41509;53.108;6.100;2023-05-10T06:45:42;2.08;;;1.05;;
55641;SDS011;41509;53.108;6.100;2023-05-10T06:48:07;1.70;;;1.00;;
55641;SDS011;41509;53.108;6.100;2023-05-10T06:50:33;1.67;;;0.88;;
55641;SDS011;41509;53.108;6.100;2023-05-10T06:52:59;1.65;;;0.73;;
55641;SDS011;41509;53.108;6.100;2023-05-10T06:55:26;1.70;;;0.88;;
55641;SDS011;41509;53.108;6.100;2023-05-10T06:57:52;1.23;;;0.63;;
55641;SDS011;41509;53.108;6.100;2023-05-10T07:00:20;2.13;;;0.88;;
55641;SDS011;41509;53.108;6.100;2023-05-10T07:02:46;3.55;;;0.90;;
55641;SDS011;41509;53.108;6.100;2023-05-10T07:05:12;0.93;;;0.60;;
55641;SDS011;41509;53.108;6.100;2023-05-10T07:07:39;1.35;;;0.70;;
55641;SDS011;41509;53.108;6.100;2023-05-10T07:10:05;1.15;;;0.68;;
55641;SDS011;41509;53.108;6.100;2023-05-10T07:12:30;1.70;;;0.70;;
55641;SDS011;41509;53.108;6.100;2023-05-10T07:14:56;1.55;;;0.90;;
55641;SDS011;41509;53.108;6.100;2023-05-10T07:17:22;2.00;;;1.07;;
55641;SDS011;41509;53.108;6.100;2023-05-10T07:19:47;1.60;;;0.77;;
55641;SDS011;41509;53.108;6.100;2023-05-10T07:22:13;1.98;;;0.85;;
55641;SDS011;41509;53.108;6.100;2023-05-10T07:27:05;1.83;;;1.02;;
55641;SDS011;41509;53.108;6.100;2023-05-10T07:29:31;1.25;;;0.88;;
55641;SDS011;41509;53.108;6.100;2023-05-10T07:31:57;3.33;;;1.08;;
55641;SDS011;41509;53.108;6.100;2023-05-10T07:34:22;6.10;;;2.33;;
55641;SDS011;41509;53.108;6.100;2023-05-10T07:36:48;2.17;;;1.30;;
55641;SDS011;41509;53.108;6.100;2023-05-10T07:39:13;3.50;;;1.80;;
55641;SDS011;41509;53.108;6.100;2023-05-10T07:41:39;4.15;;;1.63;;
55641;SDS011;41509;53.108;6.100;2023-05-10T07:44:05;2.40;;;1.33;;
55641;SDS011;41509;53.108;6.100;2023-05-10T07:48:57;2.70;;;1.55;;
55641;SDS011;41509;53.108;6.100;2023-05-10T07:51:22;4.27;;;2.27;;
55641;SDS011;41509;53.108;6.100;2023-05-10T07:53:48;3.77;;;2.20;;
55641;SDS011;41509;53.108;6.100;2023-05-10T07:56:47;4.95;;;2.55;;
55641;SDS011;41509;53.108;6.100;2023-05-10T07:59:13;4.80;;;2.72;;
55641;SDS011;41509;53.108;6.100;2023-05-10T08:01:40;5.07;;;2.80;;
55641;SDS011;41509;53.108;6.100;2023-05-10T08:04:07;4.20;;;2.40;;
55641;SDS011;41509;53.108;6.100;2023-05-10T08:06:33;3.72;;;2.20;;
55641;SDS011;41509;53.108;6.100;2023-05-10T08:08:59;5.88;;;2.25;;
55641;SDS011;41509;53.108;6.100;2023-05-10T08:11:25;5.97;;;2.83;;
55641;SDS011;41509;53.108;6.100;2023-05-10T08:13:52;4.40;;;2.17;;
55641;SDS011;41509;53.108;6.100;2023-05-10T08:16:18;3.55;;;1.95;;
55641;SDS011;41509;53.108;6.100;2023-05-10T08:18:44;5.45;;;2.28;;
55641;SDS011;41509;53.108;6.100;2023-05-10T08:21:12;4.50;;;2.65;;
55641;SDS011;41509;53.108;6.100;2023-05-10T08:23:38;4.93;;;2.40;;
55641;SDS011;41509;53.108;6.100;2023-05-10T08:26:04;4.75;;;2.30;;
55641;SDS011;41509;53.108;6.100;2023-05-10T08:28:30;3.67;;;1.85;;
55641;SDS011;41509;53.108;6.100;2023-05-10T08:30:55;3.97;;;2.20;;
55641;SDS011;41509;53.108;6.100;2023-05-10T08:33:21;4.63;;;2.67;;
55641;SDS011;41509;53.108;6.100;2023-05-10T08:35:47;8.32;;;2.50;;
55641;SDS011;41509;53.108;6.100;2023-05-10T08:38:12;4.63;;;2.58;;
55641;SDS011;41509;53.108;6.100;2023-05-10T08:40:39;5.75;;;2.63;;
55641;SDS011;41509;53.108;6.100;2023-05-10T08:43:08;4.15;;;2.13;;
55641;SDS011;41509;53.108;6.100;2023-05-10T08:45:39;5.60;;;2.50;;
55641;SDS011;41509;53.108;6.100;2023-05-10T08:48:07;4.90;;;2.53;;
55641;SDS011;41509;53.108;6.100;2023-05-10T08:50:36;5.28;;;2.78;;
55641;SDS011;41509;53.108;6.100;2023-05-10T08:53:08;6.30;;;2.90;;
55641;SDS011;41509;53.108;6.100;2023-05-10T08:55:36;6.55;;;2.17;;
55641;SDS011;41509;53.108;6.100;2023-05-10T08:58:04;4.53;;;2.35;;
55641;SDS011;41509;53.108;6.100;2023-05-10T09:00:30;5.47;;;2.78;;
55641;SDS011;41509;53.108;6.100;2023-05-10T09:02:59;5.38;;;2.75;;
55641;SDS011;41509;53.108;6.100;2023-05-10T09:05:26;6.80;;;3.17;;
55641;SDS011;41509;53.108;6.100;2023-05-10T09:07:52;6.30;;;2.67;;
55641;SDS011;41509;53.108;6.100;2023-05-10T09:10:18;7.32;;;3.03;;
55641;SDS011;41509;53.108;6.100;2023-05-10T09:12:45;4.60;;;2.38;;
55641;SDS011;41509;53.108;6.100;2023-05-10T09:17:39;7.50;;;3.30;;
55641;SDS011;41509;53.108;6.100;2023-05-10T09:20:06;5.60;;;3.30;;
55641;SDS011;41509;53.108;6.100;2023-05-10T09:22:32;5.82;;;2.83;;
55641;SDS011;41509;53.108;6.100;2023-05-10T09:27:34;6.97;;;3.20;;
55641;SDS011;41509;53.108;6.100;2023-05-10T09:30:04;6.00;;;3.17;;
55641;SDS011;41509;53.108;6.100;2023-05-10T09:32:38;5.53;;;3.30;;
55641;SDS011;41509;53.108;6.100;2023-05-10T09:35:11;6.93;;;3.22;;
55641;SDS011;41509;53.108;6.100;2023-05-10T09:37:42;6.53;;;3.15;;
55641;SDS011;41509;53.108;6.100;2023-05-10T09:40:16;5.50;;;3.05;;
55641;SDS011;41509;53.108;6.100;2023-05-10T09:42:50;5.45;;;3.08;;
55641;SDS011;41509;53.108;6.100;2023-05-10T09:45:23;5.45;;;3.42;;
55641;SDS011;41509;53.108;6.100;2023-05-10T09:47:50;7.82;;;3.15;;
55641;SDS011;41509;53.108;6.100;2023-05-10T09:50:16;3.85;;;2.25;;
55641;SDS011;41509;53.108;6.100;2023-05-10T09:52:45;5.60;;;2.97;;
55641;SDS011;41509;53.108;6.100;2023-05-10T09:55:12;6.68;;;2.70;;
55641;SDS011;41509;53.108;6.100;2023-05-10T09:57:38;7.07;;;2.75;;
55641;SDS011;41509;53.108;6.100;2023-05-10T10:00:04;7.65;;;3.00;;
55641;SDS011;41509;53.108;6.100;2023-05-10T10:02:31;5.90;;;3.13;;
55641;SDS011;41509;53.108;6.100;2023-05-10T10:04:57;7.25;;;3.28;;
55641;SDS011;41509;53.108;6.100;2023-05-10T10:07:23;6.13;;;3.00;;
55641;SDS011;41509;53.108;6.100;2023-05-10T10:09:52;8.85;;;3.75;;
55641;SDS011;41509;53.108;6.100;2023-05-10T10:14:45;6.13;;;3.20;;
55641;SDS011;41509;53.108;6.100;2023-05-10T10:17:13;7.40;;;3.50;;
55641;SDS011;41509;53.108;6.100;2023-05-10T10:19:39;7.47;;;3.97;;
55641;SDS011;41509;53.108;6.100;2023-05-10T10:22:06;8.45;;;3.95;;
55641;SDS011;41509;53.108;6.100;2023-05-10T10:24:32;6.68;;;3.67;;
55641;SDS011;41509;53.108;6.100;2023-05-10T10:27:01;10.75;;;4.30;;
55641;SDS011;41509;53.108;6.100;2023-05-10T10:30:09;8.37;;;3.47;;
55641;SDS011;41509;53.108;6.100;2023-05-10T10:32:48;7.35;;;4.35;;
55641;SDS011;41509;53.108;6.100;2023-05-10T10:35:27;6.13;;;3.30;;
55641;SDS011;41509;53.108;6.100;2023-05-10T10:37:56;6.07;;;3.83;;
55641;SDS011;41509;53.108;6.100;2023-05-10T10:40:29;8.02;;;4.72;;
55641;SDS011;41509;53.108;6.100;2023-05-10T10:42:56;8.50;;;4.10;;
55641;SDS011;41509;53.108;6.100;2023-05-10T10:45:23;8.93;;;3.80;;
55641;SDS011;41509;53.108;6.100;2023-05-10T10:50:47;6.80;;;3.88;;
55641;SDS011;41509;53.108;6.100;2023-05-10T10:53:20;8.02;;;4.15;;
55641;SDS011;41509;53.108;6.100;2023-05-10T10:55:46;7.63;;;4.90;;
55641;SDS011;41509;53.108;6.100;2023-05-10T10:58:35;7.45;;;3.55;;
55641;SDS011;41509;53.108;6.100;2023-05-10T11:01:10;6.40;;;3.17;;
55641;SDS011;41509;53.108;6.100;2023-05-10T11:03:40;8.27;;;3.03;;
55641;SDS011;41509;53.108;6.100;2023-05-10T11:06:06;6.07;;;3.50;;
55641;SDS011;41509;53.108;6.100;2023-05-10T11:08:34;6.47;;;3.05;;
55641;SDS011;41509;53.108;6.100;2023-05-10T11:11:07;8.40;;;3.60;;
55641;SDS011;41509;53.108;6.100;2023-05-10T11:13:46;4.38;;;2.70;;
55641;SDS011;41509;53.108;6.100;2023-05-10T11:19:02;6.68;;;3.50;;
55641;SDS011;41509;53.108;6.100;2023-05-10T11:21:29;8.70;;;3.75;;
55641;SDS011;41509;53.108;6.100;2023-05-10T11:23:56;6.00;;;3.15;;
55641;SDS011;41509;53.108;6.100;2023-05-10T11:26:24;7.00;;;3.58;;
55641;SDS011;41509;53.108;6.100;2023-05-10T11:28:51;8.18;;;3.90;;
55641;SDS011;41509;53.108;6.100;2023-05-10T11:31:20;8.70;;;4.13;;
55641;SDS011;41509;53.108;6.100;2023-05-10T11:36:37;8.38;;;4.05;;
55641;SDS011;41509;53.108;6.100;2023-05-10T11:39:02;7.75;;;3.70;;
55641;SDS011;41509;53.108;6.100;2023-05-10T11:41:29;6.65;;;3.95;;
55641;SDS011;41509;53.108;6.100;2023-05-10T11:43:56;7.68;;;3.97;;
55641;SDS011;41509;53.108;6.100;2023-05-10T11:46:23;8.18;;;4.50;;
55641;SDS011;41509;53.108;6.100;2023-05-10T11:48:51;8.55;;;4.22;;
55641;SDS011;41509;53.108;6.100;2023-05-10T11:51:22;10.02;;;4.25;;
55641;SDS011;41509;53.108;6.100;2023-05-10T11:53:49;6.80;;;4.28;;
55641;SDS011;41509;53.108;6.100;2023-05-10T11:56:16;10.77;;;4.30;;
55641;SDS011;41509;53.108;6.100;2023-05-10T11:58:42;7.90;;;4.28;;
55641;SDS011;41509;53.108;6.100;2023-05-10T12:01:07;10.20;;;5.10;;
55641;SDS011;41509;53.108;6.100;2023-05-10T12:03:34;10.00;;;5.05;;
55641;SDS011;41509;53.108;6.100;2023-05-10T12:06:01;7.70;;;4.10;;
55641;SDS011;41509;53.108;6.100;2023-05-10T12:08:28;7.78;;;3.90;;
55641;SDS011;41509;53.108;6.100;2023-05-10T12:11:03;13.43;;;4.30;;
55641;SDS011;41509;53.108;6.100;2023-05-10T12:13:37;7.53;;;4.22;;
55641;SDS011;41509;53.108;6.100;2023-05-10T12:16:16;6.60;;;4.30;;
55641;SDS011;41509;53.108;6.100;2023-05-10T12:18:43;8.43;;;4.95;;
55641;SDS011;41509;53.108;6.100;2023-05-10T12:23:36;12.65;;;4.68;;
55641;SDS011;41509;53.108;6.100;2023-05-10T12:26:03;7.80;;;4.65;;
55641;SDS011;41509;53.108;6.100;2023-05-10T12:28:32;8.40;;;4.55;;
55641;SDS011;41509;53.108;6.100;2023-05-10T12:33:25;6.75;;;3.97;;
55641;SDS011;41509;53.108;6.100;2023-05-10T12:35:51;13.18;;;5.10;;
55641;SDS011;41509;53.108;6.100;2023-05-10T12:40:50;8.82;;;4.07;;
55641;SDS011;41509;53.108;6.100;2023-05-10T12:43:16;6.97;;;3.85;;
55641;SDS011;41509;53.108;6.100;2023-05-10T12:45:41;6.35;;;3.75;;
55641;SDS011;41509;53.108;6.100;2023-05-10T12:48:07;6.80;;;3.63;;
55641;SDS011;41509;53.108;6.100;2023-05-10T12:50:32;7.50;;;4.13;;
55641;SDS011;41509;53.108;6.100;2023-05-10T12:52:58;5.78;;;3.53;;
55641;SDS011;41509;53.108;6.100;2023-05-10T12:55:24;7.10;;;3.80;;
55641;SDS011;41509;53.108;6.100;2023-05-10T12:57:49;7.60;;;3.45;;
55641;SDS011;41509;53.108;6.100;2023-05-10T13:00:15;9.57;;;3.50;;
55641;SDS011;41509;53.108;6.100;2023-05-10T13:02:41;9.18;;;3.00;;
55641;SDS011;41509;53.108;6.100;2023-05-10T13:05:06;6.07;;;3.17;;
55641;SDS011;41509;53.108;6.100;2023-05-10T13:07:32;5.13;;;3.10;;
55641;SDS011;41509;53.108;6.100;2023-05-10T13:09:58;4.60;;;2.87;;
55641;SDS011;41509;53.108;6.100;2023-05-10T13:12:23;6.10;;;3.20;;
55641;SDS011;41509;53.108;6.100;2023-05-10T13:14:49;5.13;;;3.03;;
55641;SDS011;41509;53.108;6.100;2023-05-10T13:17:14;6.27;;;3.67;;
55641;SDS011;41509;53.108;6.100;2023-05-10T13:19:40;6.90;;;3.93;;
55641;SDS011;41509;53.108;6.100;2023-05-10T13:22:06;6.13;;;3.57;;
55641;SDS011;41509;53.108;6.100;2023-05-10T13:24:31;7.07;;;3.83;;
55641;SDS011;41509;53.108;6.100;2023-05-10T13:26:57;5.85;;;3.75;;
55641;SDS011;41509;53.108;6.100;2023-05-10T13:29:23;6.53;;;3.78;;
55641;SDS011;41509;53.108;6.100;2023-05-10T13:31:48;8.73;;;3.88;;
55641;SDS011;41509;53.108;6.100;2023-05-10T13:34:14;5.78;;;3.25;;
55641;SDS011;41509;53.108;6.100;2023-05-10T13:36:40;7.60;;;3.70;;
55641;SDS011;41509;53.108;6.100;2023-05-10T13:39:06;5.97;;;3.20;;
55641;SDS011;41509;53.108;6.100;2023-05-10T13:41:31;6.88;;;3.75;;
55641;SDS011;41509;53.108;6.100;2023-05-10T13:43:57;8.60;;;4.35;;
55641;SDS011;41509;53.108;6.100;2023-05-10T13:46:23;7.05;;;4.07;;
55641;SDS011;41509;53.108;6.100;2023-05-10T13:48:48;9.00;;;4.97;;
55641;SDS011;41509;53.108;6.100;2023-05-10T13:51:14;6.93;;;4.17;;
55641;SDS011;41509;53.108;6.100;2023-05-10T13:53:39;9.73;;;4.07;;
55641;SDS011;41509;53.108;6.100;2023-05-10T13:56:05;7.88;;;4.00;;
55641;SDS011;41509;53.108;6.100;2023-05-10T13:58:31;9.68;;;4.13;;
55641;SDS011;41509;53.108;6.100;2023-05-10T14:00:57;11.27;;;4.78;;
55641;SDS011;41509;53.108;6.100;2023-05-10T14:03:22;9.57;;;5.03;;
55641;SDS011;41509;53.108;6.100;2023-05-10T14:05:48;8.55;;;4.72;;
55641;SDS011;41509;53.108;6.100;2023-05-10T14:08:14;8.67;;;3.73;;
55641;SDS011;41509;53.108;6.100;2023-05-10T14:10:39;7.85;;;3.80;;
55641;SDS011;41509;53.108;6.100;2023-05-10T14:13:05;8.55;;;3.58;;
55641;SDS011;41509;53.108;6.100;2023-05-10T14:15:31;10.23;;;3.22;;
55641;SDS011;41509;53.108;6.100;2023-05-10T14:17:57;6.55;;;3.83;;
55641;SDS011;41509;53.108;6.100;2023-05-10T14:20:22;9.82;;;4.60;;
55641;SDS011;41509;53.108;6.100;2023-05-10T14:22:48;5.97;;;3.50;;
55641;SDS011;41509;53.108;6.100;2023-05-10T14:25:14;7.65;;;3.17;;
55641;SDS011;41509;53.108;6.100;2023-05-10T14:27:40;5.18;;;3.10;;
55641;SDS011;41509;53.108;6.100;2023-05-10T14:30:05;5.37;;;2.50;;
55641;SDS011;41509;53.108;6.100;2023-05-10T14:32:31;4.53;;;2.33;;
55641;SDS011;41509;53.108;6.100;2023-05-10T14:34:57;4.95;;;2.70;;
55641;SDS011;41509;53.108;6.100;2023-05-10T14:37:22;5.25;;;2.65;;
55641;SDS011;41509;53.108;6.100;2023-05-10T14:39:48;3.57;;;2.07;;
55641;SDS011;41509;53.108;6.100;2023-05-10T14:42:14;4.07;;;2.30;;
55641;SDS011;41509;53.108;6.100;2023-05-10T14:44:39;3.60;;;2.30;;
55641;SDS011;41509;53.108;6.100;2023-05-10T14:47:05;6.00;;;3.27;;
55641;SDS011;41509;53.108;6.100;2023-05-10T14:49:30;7.80;;;3.93;;
55641;SDS011;41509;53.108;6.100;2023-05-10T14:51:56;8.50;;;4.70;;
55641;SDS011;41509;53.108;6.100;2023-05-10T14:54:22;8.15;;;4.57;;
55641;SDS011;41509;53.108;6.100;2023-05-10T14:56:47;8.80;;;4.60;;
55641;SDS011;41509;53.108;6.100;2023-05-10T14:59:14;7.90;;;3.97;;
55641;SDS011;41509;53.108;6.100;2023-05-10T15:01:40;7.43;;;4.50;;
55641;SDS011;41509;53.108;6.100;2023-05-10T15:06:33;8.82;;;4.10;;
55641;SDS011;41509;53.108;6.100;2023-05-10T15:08:59;8.52;;;3.92;;
55641;SDS011;41509;53.108;6.100;2023-05-10T15:11:26;5.20;;;3.30;;
55641;SDS011;41509;53.108;6.100;2023-05-10T15:13:52;6.60;;;3.15;;
55641;SDS011;41509;53.108;6.100;2023-05-10T15:16:18;4.93;;;3.20;;
55641;SDS011;41509;53.108;6.100;2023-05-10T15:18:44;5.88;;;3.53;;
55641;SDS011;41509;53.108;6.100;2023-05-10T15:21:10;5.85;;;3.17;;
55641;SDS011;41509;53.108;6.100;2023-05-10T15:23:36;5.18;;;3.08;;
55641;SDS011;41509;53.108;6.100;2023-05-10T15:26:02;5.70;;;3.13;;
55641;SDS011;41509;53.108;6.100;2023-05-10T15:28:28;4.57;;;2.90;;
55641;SDS011;41509;53.108;6.100;2023-05-10T15:30:53;5.05;;;3.03;;
55641;SDS011;41509;53.108;6.100;2023-05-10T15:33:19;5.10;;;3.30;;
55641;SDS011;41509;53.108;6.100;2023-05-10T15:35:45;8.13;;;3.65;;
55641;SDS011;41509;53.108;6.100;2023-05-10T15:38:10;6.35;;;3.65;;
55641;SDS011;41509;53.108;6.100;2023-05-10T15:40:36;6.18;;;3.50;;
55641;SDS011;41509;53.108;6.100;2023-05-10T15:43:02;5.20;;;2.80;;
55641;SDS011;41509;53.108;6.100;2023-05-10T15:45:27;4.70;;;2.73;;
55641;SDS011;41509;53.108;6.100;2023-05-10T15:47:53;5.80;;;2.35;;